»·PEaware :: N403DK KOTH-KPDX

N403DK :: KOTH-KPDX

FLIGHT INFORMATION

Flight Status: Arrived
Operator: Privately registered:
United States
More flights under this callsign
Pilot: Scott G. (88)
Aircraft: PIPER PA-31T-620 CHEYENNE 2
(PAY2)
More flights by this aircraft type
Origin: KOTH North Bend Mun
United States
Destination: KPDX Portland Intl
United States
More flights between these airports :: More routes between these airports
Route: +OTH6 SCOTY EUG UBG
File this flight plan on PilotEdge
Remarks:
Altitude:
(Current/Filed)
23,000ft
Speed:
(Current/Filed)
250kts
Departed: 26-Jul-19 07:51 AM
Arrived: 26-Jul-19 08:42 AM
Distance/Time
Traveled:
148nm/0:51
Distance/Time
To Go:
Arrived

Flight Plot

Page will automatically refresh every two minutes.

Flight plan parsing failed; only flown route is shown


Map Options




Map Legend


Flown Route
Filed Route
Departure Airport
Arrival Airport
Navaid (VOR, NDB)
Fix

Horizontal Profiles

Position Reports

Time Latitude Longitude Heading Altitude Ground
Speed
26-Jul-19 07:25 43.414812 -124.244668 245 21ft 0kts
26-Jul-19 07:26 43.414812 -124.244668 245 21ft 0kts
26-Jul-19 07:27 43.414812 -124.244668 245 21ft 0kts
26-Jul-19 07:28 43.414812 -124.244668 245 21ft 0kts
26-Jul-19 07:29 43.414812 -124.244668 245 21ft 0kts
26-Jul-19 07:30 43.414812 -124.244668 245 21ft 0kts
26-Jul-19 07:31 43.414812 -124.244668 245 21ft 0kts
26-Jul-19 07:32 43.414812 -124.244668 245 21ft 0kts
26-Jul-19 07:33 43.414812 -124.244668 245 21ft 0kts
26-Jul-19 07:34 43.414812 -124.244668 245 21ft 0kts
26-Jul-19 07:35 43.414812 -124.244668 245 21ft 0kts
26-Jul-19 07:36 43.414837 -124.244743 316 21ft 0kts
26-Jul-19 07:37 43.414837 -124.244743 316 21ft 0kts
26-Jul-19 07:38 43.414837 -124.244743 316 21ft 0kts
26-Jul-19 07:39 43.414837 -124.244743 316 21ft 0kts
26-Jul-19 07:40 43.414837 -124.244743 316 21ft 0kts
26-Jul-19 07:41 43.414837 -124.244743 316 21ft 0kts
26-Jul-19 07:42 43.414837 -124.244743 316 21ft 0kts
26-Jul-19 07:43 43.414837 -124.244743 316 21ft 0kts
26-Jul-19 07:44 43.414927 -124.244735 34 21ft 4kts
26-Jul-19 07:45 43.413015 -124.242189 149 21ft 17kts
26-Jul-19 07:46 43.408947 -124.238729 78 21ft 0kts
26-Jul-19 07:47 43.408947 -124.238729 78 21ft 0kts
26-Jul-19 07:48 43.408949 -124.238715 77 21ft 0kts
26-Jul-19 07:49 43.409599 -124.238032 330 21ft 0kts
26-Jul-19 07:50 43.430956 -124.258507 291 663ft 154kts
26-Jul-19 07:51 43.422892 -124.306255 327 2565ft 141kts
26-Jul-19 07:52 43.445456 -124.283107 105 4357ft 143kts
26-Jul-19 07:53 43.431973 -124.229639 110 5896ft 165kts
26-Jul-19 07:54 43.419219 -124.182579 111 8080ft 171kts
26-Jul-19 07:55 43.442551 -124.135416 35 10667ft 179kts
26-Jul-19 07:56 43.476468 -124.094259 43 12915ft 187kts
26-Jul-19 07:57 43.511280 -124.046837 44 14983ft 195kts
26-Jul-19 07:58 43.549027 -123.994720 45 17028ft 202kts
26-Jul-19 07:59 43.596307 -123.929310 43 19130ft 210kts
26-Jul-19 08:00 43.638841 -123.872607 43 20673ft 215kts
26-Jul-19 08:01 43.682464 -123.814437 43 21956ft 221kts
26-Jul-19 08:02 43.727090 -123.754812 43 22969ft 231kts
26-Jul-19 08:03 43.776254 -123.688910 43 22978ft 253kts
26-Jul-19 08:04 43.827190 -123.620540 43 22969ft 256kts
26-Jul-19 08:05 43.878150 -123.551935 43 22965ft 257kts
26-Jul-19 08:06 43.929509 -123.482630 43 22966ft 257kts
26-Jul-19 08:07 43.980698 -123.413366 43 22966ft 258kts
26-Jul-19 08:08 44.031272 -123.344821 44 22965ft 258kts
26-Jul-19 08:09 44.081157 -123.276929 44 22964ft 257kts
26-Jul-19 08:10 44.134738 -123.222692 11 22971ft 252kts
26-Jul-19 08:11 44.203348 -123.206788 5 22970ft 251kts
26-Jul-19 08:12 44.272453 -123.193267 5 22971ft 251kts
26-Jul-19 08:13 44.340522 -123.179954 4 23134ft 246kts
26-Jul-19 08:14 44.408595 -123.166611 5 23136ft 249kts
26-Jul-19 08:15 44.477562 -123.153062 5 23136ft 251kts
26-Jul-19 08:16 44.546493 -123.139485 5 23136ft 251kts
26-Jul-19 08:17 44.615771 -123.125816 5 23137ft 252kts
26-Jul-19 08:19 44.685161 -123.112069 5 23133ft 252kts
26-Jul-19 08:20 44.754665 -123.098288 5 23117ft 250kts
26-Jul-19 08:21 44.823299 -123.084630 4 22168ft 249kts
26-Jul-19 08:22 44.854346 -123.078429 5 21688ft 247kts
26-Jul-19 08:23 44.895303 -123.070242 4 20951ft 244kts
26-Jul-19 08:24 44.940309 -123.061295 4 20079ft 240kts
26-Jul-19 08:25 45.005571 -123.048194 4 18392ft 236kts
26-Jul-19 08:26 45.069649 -123.035395 5 16791ft 231kts
26-Jul-19 08:27 45.132182 -123.022841 5 15303ft 227kts
26-Jul-19 08:28 45.193676 -123.010409 5 13845ft 221kts
26-Jul-19 08:29 45.253631 -122.998300 6 12409ft 210kts
26-Jul-19 08:30 45.308898 -122.987065 5 10234ft 196kts
26-Jul-19 08:31 45.359184 -122.966895 34 8300ft 190kts
26-Jul-19 08:32 45.404611 -122.933581 24 6588ft 180kts
26-Jul-19 08:33 45.448064 -122.902322 24 4997ft 171kts
26-Jul-19 08:34 45.485471 -122.862726 42 3474ft 167kts
26-Jul-19 08:35 45.511743 -122.814786 53 2696ft 142kts
26-Jul-19 08:36 45.534733 -122.768477 53 1862ft 142kts
26-Jul-19 08:37 45.557097 -122.724071 52 1472ft 125kts
26-Jul-19 08:37 45.574173 -122.696600 43 1643ft 109kts
26-Jul-19 08:39 45.599153 -122.657314 48 1056ft 108kts
26-Jul-19 08:39 45.605489 -122.625906 101 583ft 104kts
26-Jul-19 08:41 45.590989 -122.585761 120 27ft 70kts
26-Jul-19 08:42 45.588459 -122.582330 205 27ft 0kts
26-Jul-19 08:42 45.587820 -122.580900 118 27ft 14kts
26-Jul-19 08:44 45.586321 -122.578669 52 27ft 7kts
26-Jul-19 08:44 45.585911 -122.577436 119 27ft 11kts
26-Jul-19 08:45 45.584595 -122.577087 114 27ft 0kts
26-Jul-19 08:47 45.589511 -122.582030 125 27ft 12kts
26-Jul-19 08:47 45.593775 -122.593010 118 49ft 93kts
26-Jul-19 08:48 45.588517 -122.582285 209 27ft 6kts
26-Jul-19 08:49 45.584595 -122.577088 114 27ft 0kts

Navigation Log

Ident Type
Flight plan parsing failed, navigation log unavailable